sensor_id;sensor_type;location;lat;lon;timestamp;P1;durP1;ratioP1;P2;durP2;ratioP2
19944;SDS011;10134;50.952;6.930;2023-03-17T00:01:55;4.38;;;1.88;;
19944;SDS011;10134;50.952;6.930;2023-03-17T00:04:23;3.00;;;1.70;;
19944;SDS011;10134;50.952;6.930;2023-03-17T00:06:52;2.70;;;1.55;;
19944;SDS011;10134;50.952;6.930;2023-03-17T00:09:20;2.40;;;1.65;;
19944;SDS011;10134;50.952;6.930;2023-03-17T00:11:48;4.63;;;2.03;;
19944;SDS011;10134;50.952;6.930;2023-03-17T00:14:16;2.83;;;1.60;;
19944;SDS011;10134;50.952;6.930;2023-03-17T00:16:46;4.38;;;2.17;;
19944;SDS011;10134;50.952;6.930;2023-03-17T00:19:30;2.25;;;1.60;;
19944;SDS011;10134;50.952;6.930;2023-03-17T00:22:01;2.15;;;1.65;;
19944;SDS011;10134;50.952;6.930;2023-03-17T00:24:31;2.60;;;1.85;;
19944;SDS011;10134;50.952;6.930;2023-03-17T00:26:59;8.35;;;1.67;;
19944;SDS011;10134;50.952;6.930;2023-03-17T00:29:26;4.25;;;1.77;;
19944;SDS011;10134;50.952;6.930;2023-03-17T00:31:54;3.50;;;2.00;;
19944;SDS011;10134;50.952;6.930;2023-03-17T00:34:23;4.20;;;2.00;;
19944;SDS011;10134;50.952;6.930;2023-03-17T00:36:50;2.58;;;2.00;;
19944;SDS011;10134;50.952;6.930;2023-03-17T00:39:21;3.28;;;1.98;;
19944;SDS011;10134;50.952;6.930;2023-03-17T00:41:53;2.58;;;1.50;;
19944;SDS011;10134;50.952;6.930;2023-03-17T00:44:20;2.03;;;1.60;;
19944;SDS011;10134;50.952;6.930;2023-03-17T00:46:47;2.30;;;1.50;;
19944;SDS011;10134;50.952;6.930;2023-03-17T00:49:16;4.47;;;2.28;;
19944;SDS011;10134;50.952;6.930;2023-03-17T00:51:45;3.22;;;1.70;;
19944;SDS011;10134;50.952;6.930;2023-03-17T00:54:14;3.30;;;2.00;;
19944;SDS011;10134;50.952;6.930;2023-03-17T00:56:43;5.10;;;2.20;;
19944;SDS011;10134;50.952;6.930;2023-03-17T00:59:25;2.78;;;1.80;;
19944;SDS011;10134;50.952;6.930;2023-03-17T01:01:56;2.92;;;2.00;;
19944;SDS011;10134;50.952;6.930;2023-03-17T01:04:23;3.30;;;1.88;;
19944;SDS011;10134;50.952;6.930;2023-03-17T01:06:51;3.97;;;2.03;;
19944;SDS011;10134;50.952;6.930;2023-03-17T01:09:19;3.78;;;1.90;;
19944;SDS011;10134;50.952;6.930;2023-03-17T01:11:49;3.63;;;1.92;;
19944;SDS011;10134;50.952;6.930;2023-03-17T01:14:17;3.00;;;2.00;;
19944;SDS011;10134;50.952;6.930;2023-03-17T01:16:45;5.50;;;2.13;;
19944;SDS011;10134;50.952;6.930;2023-03-17T01:19:14;2.72;;;1.88;;
19944;SDS011;10134;50.952;6.930;2023-03-17T01:21:42;3.30;;;1.90;;
19944;SDS011;10134;50.952;6.930;2023-03-17T01:24:11;7.25;;;2.42;;
19944;SDS011;10134;50.952;6.930;2023-03-17T01:26:38;5.05;;;2.33;;
19944;SDS011;10134;50.952;6.930;2023-03-17T01:29:06;4.32;;;2.03;;
19944;SDS011;10134;50.952;6.930;2023-03-17T01:31:34;3.60;;;2.28;;
19944;SDS011;10134;50.952;6.930;2023-03-17T01:34:04;3.45;;;2.00;;
19944;SDS011;10134;50.952;6.930;2023-03-17T01:36:32;4.20;;;2.03;;
19944;SDS011;10134;50.952;6.930;2023-03-17T01:39:00;2.28;;;2.08;;
19944;SDS011;10134;50.952;6.930;2023-03-17T01:41:34;2.85;;;1.95;;
19944;SDS011;10134;50.952;6.930;2023-03-17T01:44:02;2.75;;;1.83;;
19944;SDS011;10134;50.952;6.930;2023-03-17T01:46:31;4.45;;;1.70;;
19944;SDS011;10134;50.952;6.930;2023-03-17T01:49:09;4.47;;;1.92;;
19944;SDS011;10134;50.952;6.930;2023-03-17T01:51:44;2.50;;;1.70;;
19944;SDS011;10134;50.952;6.930;2023-03-17T01:57:16;3.88;;;2.35;;
19944;SDS011;10134;50.952;6.930;2023-03-17T01:59:50;4.78;;;2.15;;
19944;SDS011;10134;50.952;6.930;2023-03-17T02:02:26;3.47;;;1.98;;
19944;SDS011;10134;50.952;6.930;2023-03-17T02:04:57;3.65;;;1.92;;
19944;SDS011;10134;50.952;6.930;2023-03-17T02:07:25;3.90;;;1.83;;
19944;SDS011;10134;50.952;6.930;2023-03-17T02:09:57;5.05;;;2.45;;
19944;SDS011;10134;50.952;6.930;2023-03-17T02:12:26;3.38;;;2.00;;
19944;SDS011;10134;50.952;6.930;2023-03-17T02:14:56;2.17;;;1.67;;
19944;SDS011;10134;50.952;6.930;2023-03-17T02:17:24;3.15;;;2.10;;
19944;SDS011;10134;50.952;6.930;2023-03-17T02:19:53;2.85;;;1.80;;
19944;SDS011;10134;50.952;6.930;2023-03-17T02:22:22;2.92;;;1.80;;
19944;SDS011;10134;50.952;6.930;2023-03-17T02:24:50;4.43;;;2.00;;
19944;SDS011;10134;50.952;6.930;2023-03-17T02:27:25;3.58;;;2.17;;
19944;SDS011;10134;50.952;6.930;2023-03-17T02:29:56;2.95;;;1.90;;
19944;SDS011;10134;50.952;6.930;2023-03-17T02:32:25;3.22;;;2.22;;
19944;SDS011;10134;50.952;6.930;2023-03-17T02:34:56;2.95;;;1.98;;
19944;SDS011;10134;50.952;6.930;2023-03-17T02:37:24;3.08;;;2.42;;
19944;SDS011;10134;50.952;6.930;2023-03-17T02:39:51;3.20;;;2.00;;
19944;SDS011;10134;50.952;6.930;2023-03-17T02:42:19;2.67;;;2.15;;
19944;SDS011;10134;50.952;6.930;2023-03-17T02:44:47;6.13;;;2.58;;
19944;SDS011;10134;50.952;6.930;2023-03-17T02:47:14;4.30;;;2.20;;
19944;SDS011;10134;50.952;6.930;2023-03-17T02:49:43;4.07;;;2.60;;
19944;SDS011;10134;50.952;6.930;2023-03-17T02:52:10;3.72;;;2.00;;
19944;SDS011;10134;50.952;6.930;2023-03-17T02:54:38;3.67;;;2.28;;
19944;SDS011;10134;50.952;6.930;2023-03-17T02:57:07;3.13;;;1.83;;
19944;SDS011;10134;50.952;6.930;2023-03-17T02:59:34;3.15;;;2.33;;
19944;SDS011;10134;50.952;6.930;2023-03-17T03:02:02;6.10;;;2.10;;
19944;SDS011;10134;50.952;6.930;2023-03-17T03:04:30;4.85;;;2.67;;
19944;SDS011;10134;50.952;6.930;2023-03-17T03:06:58;4.72;;;2.38;;
19944;SDS011;10134;50.952;6.930;2023-03-17T03:09:26;2.95;;;1.77;;
19944;SDS011;10134;50.952;6.930;2023-03-17T03:11:53;5.55;;;2.45;;
19944;SDS011;10134;50.952;6.930;2023-03-17T03:14:21;6.93;;;2.00;;
19944;SDS011;10134;50.952;6.930;2023-03-17T03:16:48;3.05;;;2.15;;
19944;SDS011;10134;50.952;6.930;2023-03-17T03:19:16;8.32;;;2.30;;
19944;SDS011;10134;50.952;6.930;2023-03-17T03:21:44;5.10;;;2.22;;
19944;SDS011;10134;50.952;6.930;2023-03-17T03:24:12;4.03;;;2.05;;
19944;SDS011;10134;50.952;6.930;2023-03-17T03:26:39;4.90;;;2.10;;
19944;SDS011;10134;50.952;6.930;2023-03-17T03:29:07;4.30;;;2.25;;
19944;SDS011;10134;50.952;6.930;2023-03-17T03:31:34;2.47;;;1.73;;
19944;SDS011;10134;50.952;6.930;2023-03-17T03:34:02;4.13;;;2.40;;
19944;SDS011;10134;50.952;6.930;2023-03-17T03:36:29;2.83;;;2.20;;
19944;SDS011;10134;50.952;6.930;2023-03-17T03:38:58;4.40;;;2.15;;
19944;SDS011;10134;50.952;6.930;2023-03-17T03:41:26;6.95;;;2.60;;
19944;SDS011;10134;50.952;6.930;2023-03-17T03:43:53;4.00;;;2.40;;
19944;SDS011;10134;50.952;6.930;2023-03-17T03:46:21;2.55;;;2.13;;
19944;SDS011;10134;50.952;6.930;2023-03-17T03:48:48;6.40;;;2.65;;
19944;SDS011;10134;50.952;6.930;2023-03-17T03:51:15;3.08;;;2.13;;
19944;SDS011;10134;50.952;6.930;2023-03-17T03:53:43;5.13;;;2.38;;
19944;SDS011;10134;50.952;6.930;2023-03-17T03:56:10;5.00;;;2.65;;
19944;SDS011;10134;50.952;6.930;2023-03-17T03:58:38;4.03;;;2.38;;
19944;SDS011;10134;50.952;6.930;2023-03-17T04:01:05;3.97;;;2.40;;
19944;SDS011;10134;50.952;6.930;2023-03-17T04:03:34;6.57;;;2.40;;
19944;SDS011;10134;50.952;6.930;2023-03-17T04:06:02;2.55;;;2.17;;
19944;SDS011;10134;50.952;6.930;2023-03-17T04:08:31;5.20;;;2.35;;
19944;SDS011;10134;50.952;6.930;2023-03-17T04:10:59;3.25;;;2.58;;
19944;SDS011;10134;50.952;6.930;2023-03-17T04:13:26;4.65;;;2.28;;
19944;SDS011;10134;50.952;6.930;2023-03-17T04:15:53;5.63;;;2.72;;
19944;SDS011;10134;50.952;6.930;2023-03-17T04:18:21;7.70;;;2.50;;
19944;SDS011;10134;50.952;6.930;2023-03-17T04:20:48;3.20;;;2.40;;
19944;SDS011;10134;50.952;6.930;2023-03-17T04:23:15;6.70;;;2.20;;
19944;SDS011;10134;50.952;6.930;2023-03-17T04:25:43;3.00;;;2.40;;
19944;SDS011;10134;50.952;6.930;2023-03-17T04:28:10;6.13;;;2.72;;
19944;SDS011;10134;50.952;6.930;2023-03-17T04:30:37;3.95;;;2.33;;
19944;SDS011;10134;50.952;6.930;2023-03-17T04:33:05;4.65;;;3.05;;
19944;SDS011;10134;50.952;6.930;2023-03-17T04:35:32;6.00;;;2.65;;
19944;SDS011;10134;50.952;6.930;2023-03-17T04:38:00;3.40;;;2.17;;
19944;SDS011;10134;50.952;6.930;2023-03-17T04:40:28;4.38;;;2.70;;
19944;SDS011;10134;50.952;6.930;2023-03-17T04:42:56;3.25;;;2.15;;
19944;SDS011;10134;50.952;6.930;2023-03-17T04:45:23;3.33;;;2.22;;
19944;SDS011;10134;50.952;6.930;2023-03-17T04:47:51;4.80;;;2.00;;
19944;SDS011;10134;50.952;6.930;2023-03-17T04:50:18;2.65;;;2.17;;
19944;SDS011;10134;50.952;6.930;2023-03-17T04:52:46;3.50;;;2.35;;
19944;SDS011;10134;50.952;6.930;2023-03-17T04:55:13;4.10;;;2.63;;
19944;SDS011;10134;50.952;6.930;2023-03-17T04:57:41;3.75;;;2.60;;
19944;SDS011;10134;50.952;6.930;2023-03-17T05:00:10;7.38;;;2.60;;
19944;SDS011;10134;50.952;6.930;2023-03-17T05:02:38;4.25;;;2.63;;
19944;SDS011;10134;50.952;6.930;2023-03-17T05:05:06;5.07;;;2.58;;
19944;SDS011;10134;50.952;6.930;2023-03-17T05:07:33;5.00;;;3.05;;
19944;SDS011;10134;50.952;6.930;2023-03-17T05:10:00;6.00;;;3.13;;
19944;SDS011;10134;50.952;6.930;2023-03-17T05:12:28;7.18;;;2.28;;
19944;SDS011;10134;50.952;6.930;2023-03-17T05:14:55;3.85;;;2.65;;
19944;SDS011;10134;50.952;6.930;2023-03-17T05:17:22;3.70;;;2.33;;
19944;SDS011;10134;50.952;6.930;2023-03-17T05:19:50;4.32;;;2.65;;
19944;SDS011;10134;50.952;6.930;2023-03-17T05:22:17;4.30;;;2.58;;
19944;SDS011;10134;50.952;6.930;2023-03-17T05:24:44;3.17;;;2.25;;
19944;SDS011;10134;50.952;6.930;2023-03-17T05:27:14;2.97;;;2.08;;
19944;SDS011;10134;50.952;6.930;2023-03-17T05:29:41;4.38;;;2.72;;
19944;SDS011;10134;50.952;6.930;2023-03-17T05:32:09;5.10;;;2.78;;
19944;SDS011;10134;50.952;6.930;2023-03-17T05:34:36;4.10;;;2.90;;
19944;SDS011;10134;50.952;6.930;2023-03-17T05:37:03;6.47;;;2.60;;
19944;SDS011;10134;50.952;6.930;2023-03-17T05:39:31;7.78;;;3.13;;
19944;SDS011;10134;50.952;6.930;2023-03-17T05:41:59;7.10;;;3.25;;
19944;SDS011;10134;50.952;6.930;2023-03-17T05:44:26;6.47;;;2.87;;
19944;SDS011;10134;50.952;6.930;2023-03-17T05:46:53;5.93;;;2.95;;
19944;SDS011;10134;50.952;6.930;2023-03-17T05:49:21;9.32;;;3.00;;
19944;SDS011;10134;50.952;6.930;2023-03-17T05:51:48;4.15;;;2.65;;
19944;SDS011;10134;50.952;6.930;2023-03-17T05:54:16;8.38;;;2.88;;
19944;SDS011;10134;50.952;6.930;2023-03-17T05:56:43;4.50;;;3.00;;
19944;SDS011;10134;50.952;6.930;2023-03-17T05:59:11;6.95;;;3.10;;
19944;SDS011;10134;50.952;6.930;2023-03-17T06:01:41;6.53;;;3.08;;
19944;SDS011;10134;50.952;6.930;2023-03-17T06:04:09;8.15;;;3.30;;
19944;SDS011;10134;50.952;6.930;2023-03-17T06:06:37;4.45;;;2.63;;
19944;SDS011;10134;50.952;6.930;2023-03-17T06:09:04;10.05;;;2.75;;
19944;SDS011;10134;50.952;6.930;2023-03-17T06:11:31;5.53;;;3.20;;
19944;SDS011;10134;50.952;6.930;2023-03-17T06:13:59;6.85;;;2.97;;
19944;SDS011;10134;50.952;6.930;2023-03-17T06:16:27;5.63;;;3.50;;
19944;SDS011;10134;50.952;6.930;2023-03-17T06:18:56;6.95;;;3.13;;
19944;SDS011;10134;50.952;6.930;2023-03-17T06:21:23;4.68;;;2.88;;
19944;SDS011;10134;50.952;6.930;2023-03-17T06:23:51;5.07;;;3.53;;
19944;SDS011;10134;50.952;6.930;2023-03-17T06:26:18;6.05;;;3.38;;
19944;SDS011;10134;50.952;6.930;2023-03-17T06:28:45;5.97;;;2.95;;
19944;SDS011;10134;50.952;6.930;2023-03-17T06:31:13;11.00;;;3.00;;
19944;SDS011;10134;50.952;6.930;2023-03-17T06:33:40;6.70;;;3.10;;
19944;SDS011;10134;50.952;6.930;2023-03-17T06:36:08;5.45;;;2.78;;
19944;SDS011;10134;50.952;6.930;2023-03-17T06:38:35;3.60;;;2.60;;
19944;SDS011;10134;50.952;6.930;2023-03-17T06:41:02;4.78;;;2.78;;
19944;SDS011;10134;50.952;6.930;2023-03-17T06:43:30;3.20;;;2.37;;
19944;SDS011;10134;50.952;6.930;2023-03-17T06:45:58;3.83;;;2.58;;
19944;SDS011;10134;50.952;6.930;2023-03-17T06:48:28;4.47;;;2.20;;
19944;SDS011;10134;50.952;6.930;2023-03-17T06:50:55;5.63;;;2.40;;
19944;SDS011;10134;50.952;6.930;2023-03-17T06:53:23;6.95;;;3.20;;
19944;SDS011;10134;50.952;6.930;2023-03-17T06:55:50;7.00;;;2.75;;
19944;SDS011;10134;50.952;6.930;2023-03-17T06:58:18;6.90;;;3.53;;
19944;SDS011;10134;50.952;6.930;2023-03-17T07:00:46;6.33;;;2.83;;
19944;SDS011;10134;50.952;6.930;2023-03-17T07:03:14;4.90;;;2.80;;
19944;SDS011;10134;50.952;6.930;2023-03-17T07:05:42;3.88;;;2.50;;
19944;SDS011;10134;50.952;6.930;2023-03-17T07:08:10;5.68;;;3.15;;
19944;SDS011;10134;50.952;6.930;2023-03-17T07:10:37;4.72;;;3.05;;
19944;SDS011;10134;50.952;6.930;2023-03-17T07:13:07;4.70;;;2.50;;
19944;SDS011;10134;50.952;6.930;2023-03-17T07:15:35;14.88;;;3.17;;
19944;SDS011;10134;50.952;6.930;2023-03-17T07:18:03;3.28;;;2.42;;
19944;SDS011;10134;50.952;6.930;2023-03-17T07:20:32;4.05;;;2.72;;
19944;SDS011;10134;50.952;6.930;2023-03-17T07:22:59;5.00;;;2.78;;
19944;SDS011;10134;50.952;6.930;2023-03-17T07:25:27;3.78;;;2.40;;
19944;SDS011;10134;50.952;6.930;2023-03-17T07:27:55;5.78;;;2.72;;
19944;SDS011;10134;50.952;6.930;2023-03-17T07:30:24;5.60;;;2.38;;
19944;SDS011;10134;50.952;6.930;2023-03-17T07:32:52;3.83;;;2.67;;
19944;SDS011;10134;50.952;6.930;2023-03-17T07:35:20;4.50;;;2.63;;
19944;SDS011;10134;50.952;6.930;2023-03-17T07:37:48;5.47;;;2.58;;
19944;SDS011;10134;50.952;6.930;2023-03-17T07:40:16;4.28;;;2.35;;
19944;SDS011;10134;50.952;6.930;2023-03-17T07:42:44;5.65;;;2.78;;
19944;SDS011;10134;50.952;6.930;2023-03-17T07:45:11;5.10;;;2.22;;
19944;SDS011;10134;50.952;6.930;2023-03-17T07:47:39;9.88;;;2.88;;
19944;SDS011;10134;50.952;6.930;2023-03-17T07:50:06;4.47;;;2.08;;
19944;SDS011;10134;50.952;6.930;2023-03-17T07:52:34;8.02;;;2.38;;
19944;SDS011;10134;50.952;6.930;2023-03-17T07:55:01;7.55;;;2.20;;
19944;SDS011;10134;50.952;6.930;2023-03-17T07:57:29;3.13;;;2.42;;
19944;SDS011;10134;50.952;6.930;2023-03-17T07:59:56;5.00;;;2.75;;
19944;SDS011;10134;50.952;6.930;2023-03-17T08:02:24;4.68;;;2.55;;
19944;SDS011;10134;50.952;6.930;2023-03-17T08:04:52;5.53;;;3.33;;
19944;SDS011;10134;50.952;6.930;2023-03-17T08:07:19;5.53;;;2.50;;
19944;SDS011;10134;50.952;6.930;2023-03-17T08:09:47;3.08;;;2.00;;
19944;SDS011;10134;50.952;6.930;2023-03-17T08:12:14;3.30;;;2.33;;
19944;SDS011;10134;50.952;6.930;2023-03-17T08:14:42;6.35;;;2.63;;
19944;SDS011;10134;50.952;6.930;2023-03-17T08:17:09;5.75;;;2.88;;
19944;SDS011;10134;50.952;6.930;2023-03-17T08:19:37;6.43;;;2.65;;
19944;SDS011;10134;50.952;6.930;2023-03-17T08:22:04;4.07;;;2.78;;
19944;SDS011;10134;50.952;6.930;2023-03-17T08:24:32;5.32;;;2.97;;
19944;SDS011;10134;50.952;6.930;2023-03-17T08:27:00;7.22;;;2.95;;
19944;SDS011;10134;50.952;6.930;2023-03-17T08:29:27;4.85;;;2.50;;
19944;SDS011;10134;50.952;6.930;2023-03-17T08:31:58;6.53;;;2.33;;
19944;SDS011;10134;50.952;6.930;2023-03-17T08:34:26;3.92;;;2.58;;
19944;SDS011;10134;50.952;6.930;2023-03-17T08:36:53;5.35;;;2.55;;
19944;SDS011;10134;50.952;6.930;2023-03-17T08:39:22;5.13;;;2.70;;
19944;SDS011;10134;50.952;6.930;2023-03-17T08:41:50;5.47;;;2.65;;
19944;SDS011;10134;50.952;6.930;2023-03-17T08:44:17;4.05;;;2.47;;
19944;SDS011;10134;50.952;6.930;2023-03-17T08:46:46;5.80;;;3.03;;
19944;SDS011;10134;50.952;6.930;2023-03-17T08:49:15;4.22;;;2.35;;
19944;SDS011;10134;50.952;6.930;2023-03-17T08:51:42;5.03;;;2.85;;
19944;SDS011;10134;50.952;6.930;2023-03-17T08:54:10;5.82;;;3.17;;
19944;SDS011;10134;50.952;6.930;2023-03-17T08:56:38;3.90;;;2.35;;
19944;SDS011;10134;50.952;6.930;2023-03-17T08:59:06;5.68;;;2.30;;
19944;SDS011;10134;50.952;6.930;2023-03-17T09:01:34;4.35;;;2.67;;
19944;SDS011;10134;50.952;6.930;2023-03-17T09:04:03;4.68;;;2.20;;
19944;SDS011;10134;50.952;6.930;2023-03-17T09:06:30;5.03;;;2.35;;
19944;SDS011;10134;50.952;6.930;2023-03-17T09:08:57;7.25;;;2.58;;
19944;SDS011;10134;50.952;6.930;2023-03-17T09:11:26;4.43;;;2.45;;
19944;SDS011;10134;50.952;6.930;2023-03-17T09:13:55;3.40;;;2.17;;
19944;SDS011;10134;50.952;6.930;2023-03-17T09:16:23;5.35;;;2.25;;
19944;SDS011;10134;50.952;6.930;2023-03-17T09:18:51;7.63;;;2.55;;
19944;SDS011;10134;50.952;6.930;2023-03-17T09:21:18;9.18;;;2.88;;
19944;SDS011;10134;50.952;6.930;2023-03-17T09:23:47;5.40;;;3.00;;
19944;SDS011;10134;50.952;6.930;2023-03-17T09:26:14;3.83;;;2.15;;
19944;SDS011;10134;50.952;6.930;2023-03-17T09:28:42;4.20;;;2.70;;
19944;SDS011;10134;50.952;6.930;2023-03-17T09:31:09;5.70;;;2.38;;
19944;SDS011;10134;50.952;6.930;2023-03-17T09:33:38;5.20;;;2.40;;
19944;SDS011;10134;50.952;6.930;2023-03-17T09:36:07;3.38;;;2.20;;
19944;SDS011;10134;50.952;6.930;2023-03-17T09:38:36;2.75;;;2.00;;
19944;SDS011;10134;50.952;6.930;2023-03-17T09:44:00;3.05;;;1.85;;
19944;SDS011;10134;50.952;6.930;2023-03-17T09:49:44;3.80;;;1.60;;
19944;SDS011;10134;50.952;6.930;2023-03-17T09:52:15;3.20;;;1.58;;
19944;SDS011;10134;50.952;6.930;2023-03-17T09:54:45;2.78;;;1.80;;
19944;SDS011;10134;50.952;6.930;2023-03-17T09:57:16;4.15;;;1.77;;
19944;SDS011;10134;50.952;6.930;2023-03-17T09:59:53;6.53;;;2.13;;
19944;SDS011;10134;50.952;6.930;2023-03-17T10:02:31;4.65;;;2.00;;
19944;SDS011;10134;50.952;6.930;2023-03-17T10:11:06;3.33;;;1.30;;
19944;SDS011;10134;50.952;6.930;2023-03-17T10:13:55;3.28;;;1.48;;
19944;SDS011;10134;50.952;6.930;2023-03-17T10:16:42;2.58;;;1.65;;
19944;SDS011;10134;50.952;6.930;2023-03-17T10:21:55;3.42;;;1.85;;
19944;SDS011;10134;50.952;6.930;2023-03-17T10:24:30;4.30;;;1.80;;
19944;SDS011;10134;50.952;6.930;2023-03-17T10:27:00;3.83;;;2.10;;
19944;SDS011;10134;50.952;6.930;2023-03-17T10:29:32;7.28;;;1.85;;
19944;SDS011;10134;50.952;6.930;2023-03-17T10:31:59;2.03;;;1.35;;
19944;SDS011;10134;50.952;6.930;2023-03-17T10:34:31;6.68;;;1.75;;
19944;SDS011;10134;50.952;6.930;2023-03-17T10:37:04;3.80;;;1.40;;
19944;SDS011;10134;50.952;6.930;2023-03-17T10:39:43;3.95;;;1.55;;
19944;SDS011;10134;50.952;6.930;2023-03-17T10:44:53;5.72;;;1.65;;
19944;SDS011;10134;50.952;6.930;2023-03-17T10:49:56;3.25;;;1.58;;
19944;SDS011;10134;50.952;6.930;2023-03-17T10:52:45;4.72;;;1.60;;
19944;SDS011;10134;50.952;6.930;2023-03-17T10:55:14;3.22;;;1.67;;
19944;SDS011;10134;50.952;6.930;2023-03-17T10:58:01;4.53;;;1.80;;
19944;SDS011;10134;50.952;6.930;2023-03-17T11:00:35;5.43;;;2.08;;
19944;SDS011;10134;50.952;6.930;2023-03-17T11:03:14;2.28;;;1.20;;
19944;SDS011;10134;50.952;6.930;2023-03-17T11:05:55;3.78;;;1.80;;
19944;SDS011;10134;50.952;6.930;2023-03-17T11:08:29;3.72;;;1.65;;
19944;SDS011;10134;50.952;6.930;2023-03-17T11:10:58;4.05;;;1.73;;
19944;SDS011;10134;50.952;6.930;2023-03-17T11:13:29;4.40;;;2.05;;
19944;SDS011;10134;50.952;6.930;2023-03-17T11:16:04;4.40;;;1.92;;
19944;SDS011;10134;50.952;6.930;2023-03-17T11:18:36;2.33;;;1.63;;
19944;SDS011;10134;50.952;6.930;2023-03-17T11:21:07;6.90;;;1.90;;
19944;SDS011;10134;50.952;6.930;2023-03-17T11:23:52;3.05;;;1.70;;
19944;SDS011;10134;50.952;6.930;2023-03-17T11:29:15;2.42;;;1.45;;
19944;SDS011;10134;50.952;6.930;2023-03-17T11:40:33;2.75;;;1.40;;
19944;SDS011;10134;50.952;6.930;2023-03-17T11:45:51;5.75;;;1.60;;
19944;SDS011;10134;50.952;6.930;2023-03-17T11:51:05;6.47;;;1.83;;
19944;SDS011;10134;50.952;6.930;2023-03-17T11:56:31;4.82;;;1.60;;
19944;SDS011;10134;50.952;6.930;2023-03-17T12:02:16;4.90;;;2.05;;
19944;SDS011;10134;50.952;6.930;2023-03-17T12:04:52;2.22;;;1.58;;
19944;SDS011;10134;50.952;6.930;2023-03-17T12:07:33;3.35;;;1.80;;
19944;SDS011;10134;50.952;6.930;2023-03-17T12:13:32;2.17;;;1.50;;
19944;SDS011;10134;50.952;6.930;2023-03-17T12:21:26;3.13;;;1.58;;
19944;SDS011;10134;50.952;6.930;2023-03-17T12:24:09;6.03;;;2.28;;
19944;SDS011;10134;50.952;6.930;2023-03-17T12:32:43;4.88;;;1.92;;
19944;SDS011;10134;50.952;6.930;2023-03-17T12:37:52;2.42;;;1.33;;
19944;SDS011;10134;50.952;6.930;2023-03-17T12:40:21;3.70;;;1.40;;
19944;SDS011;10134;50.952;6.930;2023-03-17T12:48:57;2.95;;;1.75;;
19944;SDS011;10134;50.952;6.930;2023-03-17T12:54:25;4.53;;;1.50;;
19944;SDS011;10134;50.952;6.930;2023-03-17T12:56:59;3.50;;;1.35;;
19944;SDS011;10134;50.952;6.930;2023-03-17T12:59:48;3.92;;;1.80;;
19944;SDS011;10134;50.952;6.930;2023-03-17T13:02:34;4.00;;;1.40;;
19944;SDS011;10134;50.952;6.930;2023-03-17T13:05:05;3.40;;;1.50;;
19944;SDS011;10134;50.952;6.930;2023-03-17T13:07:51;4.50;;;1.55;;
19944;SDS011;10134;50.952;6.930;2023-03-17T13:18:20;5.38;;;1.70;;
19944;SDS011;10134;50.952;6.930;2023-03-17T13:26:12;4.55;;;1.55;;
19944;SDS011;10134;50.952;6.930;2023-03-17T13:28:48;5.10;;;1.48;;
19944;SDS011;10134;50.952;6.930;2023-03-17T13:33:54;3.10;;;1.42;;
19944;SDS011;10134;50.952;6.930;2023-03-17T13:36:37;4.60;;;1.80;;
19944;SDS011;10134;50.952;6.930;2023-03-17T13:42:11;4.00;;;1.90;;
19944;SDS011;10134;50.952;6.930;2023-03-17T13:45:04;3.78;;;1.70;;
19944;SDS011;10134;50.952;6.930;2023-03-17T13:47:50;6.45;;;2.20;;
19944;SDS011;10134;50.952;6.930;2023-03-17T13:50:22;4.07;;;1.50;;
19944;SDS011;10134;50.952;6.930;2023-03-17T13:57:27;9.63;;;2.50;;
19944;SDS011;10134;50.952;6.930;2023-03-17T14:00:02;3.80;;;1.60;;
19944;SDS011;10134;50.952;6.930;2023-03-17T14:02:33;5.05;;;1.77;;
19944;SDS011;10134;50.952;6.930;2023-03-17T14:05:04;2.42;;;1.40;;
19944;SDS011;10134;50.952;6.930;2023-03-17T14:07:38;4.63;;;2.00;;
19944;SDS011;10134;50.952;6.930;2023-03-17T14:10:17;2.42;;;1.70;;
19944;SDS011;10134;50.952;6.930;2023-03-17T14:13:02;3.58;;;1.80;;
19944;SDS011;10134;50.952;6.930;2023-03-17T14:15:58;2.90;;;1.60;;
19944;SDS011;10134;50.952;6.930;2023-03-17T14:18:50;2.38;;;1.40;;
19944;SDS011;10134;50.952;6.930;2023-03-17T14:21:31;2.92;;;1.23;;
19944;SDS011;10134;50.952;6.930;2023-03-17T14:23:59;2.00;;;1.42;;
19944;SDS011;10134;50.952;6.930;2023-03-17T14:26:29;1.45;;;1.20;;
19944;SDS011;10134;50.952;6.930;2023-03-17T14:28:58;2.78;;;1.58;;
19944;SDS011;10134;50.952;6.930;2023-03-17T14:31:27;6.47;;;1.80;;
19944;SDS011;10134;50.952;6.930;2023-03-17T14:33:57;1.95;;;1.30;;
19944;SDS011;10134;50.952;6.930;2023-03-17T14:36:31;3.38;;;1.85;;
19944;SDS011;10134;50.952;6.930;2023-03-17T14:38:59;4.18;;;1.10;;
19944;SDS011;10134;50.952;6.930;2023-03-17T14:41:27;4.35;;;1.60;;
19944;SDS011;10134;50.952;6.930;2023-03-17T14:43:58;5.40;;;1.30;;
19944;SDS011;10134;50.952;6.930;2023-03-17T14:46:30;3.90;;;2.25;;
19944;SDS011;10134;50.952;6.930;2023-03-17T14:49:15;4.78;;;1.40;;
19944;SDS011;10134;50.952;6.930;2023-03-17T14:51:48;5.50;;;1.67;;
19944;SDS011;10134;50.952;6.930;2023-03-17T14:54:21;5.80;;;1.60;;
19944;SDS011;10134;50.952;6.930;2023-03-17T14:56:55;4.38;;;1.23;;
19944;SDS011;10134;50.952;6.930;2023-03-17T14:59:30;3.50;;;1.80;;
19944;SDS011;10134;50.952;6.930;2023-03-17T15:02:15;2.58;;;1.25;;
19944;SDS011;10134;50.952;6.930;2023-03-17T15:05:05;4.18;;;2.05;;
19944;SDS011;10134;50.952;6.930;2023-03-17T15:07:52;4.35;;;1.63;;
19944;SDS011;10134;50.952;6.930;2023-03-17T15:10:21;2.78;;;1.98;;
19944;SDS011;10134;50.952;6.930;2023-03-17T15:12:58;4.35;;;1.65;;
19944;SDS011;10134;50.952;6.930;2023-03-17T15:15:31;3.22;;;1.67;;
19944;SDS011;10134;50.952;6.930;2023-03-17T15:18:05;2.60;;;1.40;;
19944;SDS011;10134;50.952;6.930;2023-03-17T15:20:37;4.75;;;1.52;;
19944;SDS011;10134;50.952;6.930;2023-03-17T15:23:14;2.40;;;1.58;;
19944;SDS011;10134;50.952;6.930;2023-03-17T15:25:46;4.20;;;1.98;;
19944;SDS011;10134;50.952;6.930;2023-03-17T15:28:18;4.47;;;1.50;;
19944;SDS011;10134;50.952;6.930;2023-03-17T15:30:47;6.32;;;1.58;;
19944;SDS011;10134;50.952;6.930;2023-03-17T15:33:19;4.47;;;1.55;;
19944;SDS011;10134;50.952;6.930;2023-03-17T15:35:48;5.85;;;2.35;;
19944;SDS011;10134;50.952;6.930;2023-03-17T15:38:16;5.50;;;1.58;;
19944;SDS011;10134;50.952;6.930;2023-03-17T15:40:43;4.93;;;1.98;;
19944;SDS011;10134;50.952;6.930;2023-03-17T15:43:14;4.65;;;1.45;;
19944;SDS011;10134;50.952;6.930;2023-03-17T15:45:43;3.15;;;1.70;;
19944;SDS011;10134;50.952;6.930;2023-03-17T15:48:15;5.40;;;1.90;;
19944;SDS011;10134;50.952;6.930;2023-03-17T15:50:49;3.05;;;1.63;;
19944;SDS011;10134;50.952;6.930;2023-03-17T15:53:18;3.20;;;1.80;;
19944;SDS011;10134;50.952;6.930;2023-03-17T15:55:46;4.10;;;1.70;;
19944;SDS011;10134;50.952;6.930;2023-03-17T15:58:14;5.85;;;1.75;;
19944;SDS011;10134;50.952;6.930;2023-03-17T16:00:41;2.30;;;1.77;;
19944;SDS011;10134;50.952;6.930;2023-03-17T16:05:57;7.00;;;1.90;;
19944;SDS011;10134;50.952;6.930;2023-03-17T16:08:28;3.72;;;1.70;;
19944;SDS011;10134;50.952;6.930;2023-03-17T16:10:56;4.03;;;1.67;;
19944;SDS011;10134;50.952;6.930;2023-03-17T16:13:23;2.55;;;1.25;;
19944;SDS011;10134;50.952;6.930;2023-03-17T16:15:59;2.65;;;1.50;;
19944;SDS011;10134;50.952;6.930;2023-03-17T16:18:34;4.22;;;1.65;;
19944;SDS011;10134;50.952;6.930;2023-03-17T16:21:03;4.75;;;2.13;;
19944;SDS011;10134;50.952;6.930;2023-03-17T16:23:31;3.00;;;2.05;;
19944;SDS011;10134;50.952;6.930;2023-03-17T16:26:03;6.03;;;1.92;;
19944;SDS011;10134;50.952;6.930;2023-03-17T16:28:41;5.97;;;2.22;;
19944;SDS011;10134;50.952;6.930;2023-03-17T16:31:15;3.85;;;2.30;;
19944;SDS011;10134;50.952;6.930;2023-03-17T16:33:45;3.17;;;1.60;;
19944;SDS011;10134;50.952;6.930;2023-03-17T16:36:15;6.45;;;2.38;;
19944;SDS011;10134;50.952;6.930;2023-03-17T16:38:44;5.28;;;2.53;;
19944;SDS011;10134;50.952;6.930;2023-03-17T16:41:16;5.47;;;2.65;;
19944;SDS011;10134;50.952;6.930;2023-03-17T16:43:51;5.60;;;2.38;;
19944;SDS011;10134;50.952;6.930;2023-03-17T16:46:23;7.53;;;2.50;;